ADDS METAR Data INFO
IDs: Format: Raw Decoded Include TAF

Data at: 0303 UTC 17 Jan 2018

KLRJ 170255Z AUTO 18004KT 10SM CLR M19/M21 A3062 RMK AO2
KLRJ 170235Z AUTO 19004KT 10SM CLR M19/M20 A3062 RMK AO2
KLRJ 170215Z AUTO 18005KT 10SM CLR M18/M20 A3062 RMK AO2
KLRJ 170155Z AUTO 00000KT 10SM CLR M19/M20 A3064 RMK AO2
KLRJ 170135Z AUTO 21003KT 10SM CLR M18/M20 A3064 RMK AO2
KLRJ 170115Z AUTO 19003KT 10SM CLR M18/M19 A3064 RMK AO2
KLRJ 170055Z AUTO 20003KT 10SM CLR M17/M19 A3065 RMK AO2
KLRJ 170035Z AUTO 00000KT 10SM CLR M17/M19 A3066 RMK AO2
KLRJ 170015Z AUTO 00000KT 10SM CLR M16/M19 A3066 RMK AO2
KLRJ 162355Z AUTO 00000KT 10SM CLR M16/M18 A3065 RMK AO2
KLRJ 162335Z AUTO 00000KT 10SM CLR M15/M18 A3065 RMK AO2
KLRJ 162315Z AUTO 00000KT 10SM CLR M15/M18 A3066 RMK AO2
KLRJ 162255Z AUTO 30005KT 10SM CLR M14/M17 A3066 RMK AO2
KLRJ 162235Z AUTO VRB05KT 10SM CLR M14/M17 A3067 RMK AO2
KLRJ 162215Z AUTO 27007KT 10SM CLR M13/M17 A3067 RMK AO2
KLRJ 162155Z AUTO 29006KT 10SM CLR M13/M17 A3067 RMK AO2
KLRJ 162135Z AUTO 30007KT 10SM CLR M13/M17 A3068 RMK AO2
KLRJ 162115Z AUTO 28006KT 10SM CLR M14/M18 A3068 RMK AO2
KLRJ 162055Z AUTO 30007KT 10SM CLR M14/M18 A3068 RMK AO2
KLRJ 162035Z AUTO 30008KT 10SM CLR M14/M18 A3069 RMK AO2
KLRJ 162015Z AUTO 31008KT 10SM CLR M14/M18 A3069 RMK AO2
KLRJ 161955Z AUTO 31008KT 10SM CLR M15/M18 A3070 RMK AO2
KLRJ 161935Z AUTO 30006KT 10SM CLR M15/M19 A3071 RMK AO2
KLRJ 161915Z AUTO 29008KT 10SM CLR M16/M19 A3072 RMK AO2
KLRJ 161855Z AUTO 31011KT 10SM CLR M16/M20 A3072 RMK AO2
KLRJ 161835Z AUTO 30010KT 10SM CLR M17/M20 A3073 RMK AO2
KLRJ 161815Z AUTO 30009KT 10SM FEW014 M17/M20 A3074 RMK AO2
KLRJ 161755Z AUTO 29008KT 10SM CLR M18/M21 A3075 RMK AO2
KLRJ 161735Z AUTO 32007KT 9SM CLR M18/M21 A3075 RMK AO2
KLRJ 161715Z AUTO 31008KT 8SM CLR M18/M22 A3076 RMK AO2
KLRJ 161655Z AUTO 32008KT 9SM BKN014 M19/M22 A3076 RMK AO2
KLRJ 161635Z AUTO 31011KT 7SM OVC013 M19/M22 A3077 RMK AO2
KLRJ 161615Z AUTO 31012KT 7SM OVC014 M19/M23 A3077 RMK AO2
KLRJ 161555Z AUTO 32009KT 9SM OVC014 M20/M23 A3076 RMK AO2
KLRJ 161535Z AUTO 31009KT 9SM OVC014 M20/M23 A3076 RMK AO2
KLRJ 161515Z AUTO 31008G14KT 10SM OVC014 M20/M23 A3076 RMK AO2
KLRJ 161455Z AUTO 31009KT 10SM OVC013 M20/M24 A3075 RMK AO2
KLRJ 161435Z AUTO 30008KT 10SM OVC013 M21/M24 A3075 RMK AO2
KLRJ 161415Z AUTO 30007G14KT 10SM OVC014 M21/M24 A3075 RMK AO2
KLRJ 161355Z AUTO 31008G15KT 10SM OVC014 M20/M23 A3075 RMK AO2
KLRJ 161335Z AUTO 31012KT 10SM OVC014 M20/M23 A3075 RMK AO2
KLRJ 161315Z AUTO 32013KT 10SM OVC015 M20/M23 A3074 RMK AO2
KLRJ 161255Z AUTO 31010G16KT 10SM OVC015 M20/M23 A3074 RMK AO2
KLRJ 161235Z AUTO 31012KT 10SM OVC015 M20/M23 A3074 RMK AO2
KLRJ 161215Z AUTO 31009G14KT 10SM OVC016 M19/M22 A3074 RMK AO2
KLRJ 161155Z AUTO 31008KT 10SM OVC015 M19/M22 A3073 RMK AO2
KLRJ 161135Z AUTO 33011KT 10SM OVC015 M19/M22 A3073 RMK AO2
KLRJ 161115Z AUTO 33010KT 10SM OVC015 M19/M22 A3072 RMK AO2
KLRJ 161055Z AUTO 34011G18KT 10SM OVC016 M19/M22 A3072 RMK AO2
KLRJ 161035Z AUTO 33011G17KT 10SM OVC017 M19/M22 A3073 RMK AO2
KLRJ 161015Z AUTO 32004KT 10SM OVC016 M20/M23 A3072 RMK AO2
KLRJ 160955Z AUTO 30006KT 10SM OVC016 M20/M23 A3072 RMK AO2
KLRJ 160935Z AUTO 30005KT 10SM -SN OVC015 M20/M23 A3072 RMK AO2
KLRJ 160915Z AUTO 30006KT 10SM OVC016 M21/M24 A3072 RMK AO2
KLRJ 160855Z AUTO 31007KT 10SM BKN018 OVC023 M21/M24 A3072 RMK AO2
KLRJ 160835Z AUTO 32007KT 10SM BKN022 OVC034 M21/M24 A3072 RMK AO2
KLRJ 160815Z AUTO 32008KT 10SM FEW023 OVC033 M20/M24 A3072 RMK AO2
KLRJ 160755Z AUTO 33007G14KT 10SM FEW013 BKN022 OVC032 M20/M24 A3071 RMK AO2
KLRJ 160735Z AUTO 34014G20KT 10SM OVC019 M20/M24 A3070 RMK AO2
KLRJ 160715Z AUTO 34013G22KT 10SM OVC017 M20/M24 A3070 RMK AO2
KLRJ 160655Z AUTO 33016G21KT 10SM OVC017 M20/M24 A3069 RMK AO2
KLRJ 160635Z AUTO 32010G20KT 10SM OVC019 M19/M23 A3069 RMK AO2
KLRJ 160615Z AUTO 33011G20KT 10SM OVC021 M19/M23 A3069 RMK AO2
KLRJ 160555Z AUTO 33011G18KT 10SM OVC025 M20/M23 A3070 RMK AO2
KLRJ 160535Z AUTO 33011G21KT 10SM BKN026 OVC035 M20/M24 A3070 RMK AO2
KLRJ 160515Z AUTO 34013G21KT 10SM FEW027 OVC035 M20/M23 A3070 RMK AO2
KLRJ 160455Z AUTO 33011G17KT 10SM FEW013 BKN026 OVC038 M20/M24 A3069 RMK AO2
KLRJ 160435Z AUTO 33010KT 10SM FEW013 SCT024 M21/M24 A3069 RMK AO2
KLRJ 160415Z AUTO 32006KT 10SM SCT013 SCT017 SCT023 M21/M24 A3068 RMK AO2
KLRJ 160355Z AUTO 33009KT 10SM SCT013 BKN018 OVC050 M21/M24 A3068 RMK AO2
KLRJ 160335Z AUTO 32007G12KT 10SM BKN013 BKN018 OVC036 M21/M24 A3069 RMK AO2
KLRJ 160315Z AUTO 33009G16KT 10SM SCT013 SCT019 BKN025 M20/M24 A3067 RMK AO2
KLRJ 160255Z AUTO 33013KT 10SM OVC025 M20/M24 A3067 RMK AO2
KLRJ 160235Z AUTO 32011G16KT 10SM OVC025 M20/M24 A3067 RMK AO2
KLRJ 160215Z AUTO 32009G16KT 10SM OVC027 M20/M24 A3067 RMK AO2
KLRJ 160155Z AUTO 32009G16KT FEW013 OVC028 M20/M24 A3066 RMK AO2
KLRJ 160135Z AUTO 31011KT 10SM FEW013 BKN027 M20/M24 A3066 RMK AO2
KLRJ 160115Z AUTO 31012G19KT 10SM FEW013 FEW022 BKN028 M20/M24 A3065 RMK AO2
KLRJ 160055Z AUTO 31013G21KT 10SM SCT013 M20/M24 A3064 RMK AO2
KLRJ 160035Z AUTO 31014G19KT 10SM FEW014 SCT027 SCT035 M20/M24 A3063 RMK AO2
KLRJ 160015Z AUTO 31011G20KT 10SM SCT026 SCT033 BKN040 M20/M24 A3063 RMK AO2
KLRJ 152355Z AUTO 31010G18KT 10SM FEW020 SCT026 BKN047 M20/M24 A3063 RMK AO2
KLRJ 152335Z AUTO 9.83333310G18KT 10SM FEW015 FEW020 SCT026 M19/M24 A3063 RMK AO2
KLRJ 152315Z AUTO 31011G17KT 10SM SCT015 SCT021 SCT095 M19/M24 A3062 RMK AO2
KLRJ 152255Z AUTO 31015G23KT 10SM SCT016 SCT021 SCT031 M19/M23 A3062 RMK AO2
KLRJ 152235Z AUTO 32013G21KT 10SM FEW021 M18/M23 A3061 RMK AO2
KLRJ 152215Z AUTO 32016G24KT 9SM FEW021 SCT026 M18/M23 A3060 RMK AO2
KLRJ 152155Z AUTO 32019G28KT 9SM SCT022 SCT027 M18/M23 A3059 RMK AO2
KLRJ 152135Z AUTO 32018G25KT 9SM SCT021 SCT026 M18/M23 A3059 RMK AO2
KLRJ 152115Z AUTO 32014G25KT 10SM SCT022 M18/M23 A3059 RMK AO2
KLRJ 152055Z AUTO 31016G26KT 10SM FEW017 BKN024 SCT060 M18/M23 A3058 RMK AO2
KLRJ 152035Z AUTO 31016G25KT 10SM FEW017 SCT023 SCT027 M18/M23 A3057 RMK AO2
KLRJ 152015Z AUTO 31018G28KT 10SM SCT022 SCT027 M18/M23 A3056 RMK AO2
KLRJ 151955Z AUTO 32021G27KT 10SM FEW021 SCT025 M18/M23 A3056 RMK AO2
KLRJ 151935Z AUTO 32021G27KT 9SM FEW021 SCT070 M18/M23 A3055 RMK AO2
KLRJ 151915Z AUTO 31019G27KT 10SM FEW020 FEW025 BKN070 M17/M22 A3055 RMK AO2
KLRJ 151855Z AUTO 31018G29KT 10SM FEW016 SCT075 M18/M23 A3056 RMK AO2
KLRJ 151835Z AUTO 31020G28KT 10SM SCT016 SCT021 M18/M23 A3055 RMK AO2
KLRJ 151815Z AUTO 31021G27KT 10SM FEW018 FEW023 M18/M23 A3056 RMK AO2
KLRJ 151755Z AUTO 32019G27KT 10SM CLR M18/M23 A3056 RMK AO2
KLRJ 151735Z AUTO 31015G27KT 10SM FEW019 M18/M23 A3057 RMK AO2
KLRJ 151715Z AUTO 31019G28KT 9SM FEW019 M18/M23 A3057 RMK AO2
KLRJ 151655Z AUTO 31020G27KT 8SM FEW019 M18/M23 A3057 RMK AO2
KLRJ 151615Z AUTO 32018G27KT 10SM FEW065 M19/M23 A3056 RMK AO2
KLRJ 151555Z AUTO 31019G28KT 9SM CLR M19/M23 A3055 RMK AO2
KLRJ 151535Z AUTO 32015G25KT 10SM CLR M19/M23 A3054 RMK AO2
KLRJ 151515Z AUTO 32018G30KT 10SM CLR M19/M23 A3053 RMK AO2